Destinations Hakkari Yüksekova Airport

Hakkari Yüksekova Airport (LTCW / YKO)

Flights to Hakkari Yüksekova Airport

Flight number From ETE Dispatch
SPY-602 EHGG Groningen Airport Eelde 04:25

Flights from Hakkari Yüksekova Airport

Flight number To ETE Dispatch
SPY-603 EHGG Groningen Airport Eelde
About

Hakkari Yüksekova Airport facts

Hakkari Yüksekova Airport is located in Hakkari at an elevation of 1950.7 meters or 6400 feet.

Currently, Speedy Airlines serves 2 flights to and from Hakkari Yüksekova Airport.

Detailed airport info

Route map

Weather

Current weather

METAR

METAR

Metar data retrieved Sunday, 21 July 2024 at 20:25 UTC

LTCW 211950Z 18005KT 120V200 9999 SCT040 SCT080 21/11 Q1016
Wind Temperature
5 kt 21c